Αναφορές METAR από Ελληνικά Αεροδρόμια

Σε αυτή τη σελίδα, μπορείτε να παρακολουθείτε τις αναφορές METAR που προέρχονται από τα κυριότερα αεροδρόμια της Ελλάδας. Το περιεχόμενο αποκωδικοποιείται, οπτικοποιείται και γίνεται κατανοητό από τον καθένα με τη χρήση του όμορφου δίγλωσσου γραφικού περιβάλλοντος του meteothes.gr!

Η αρχική κωδικοποιημένη αναφορά, συμπεριλαμβάνεται επίσης στο κάτω μέρος. Σε όποια καθεστερεί η ενημέρωση, το προειδοποιητικό μήνυμα "Μη ενημερωμένο METAR!" εμφανίζεται στο πάνω μέρος της με κόκκινα γράμματα.

Εχουν προστεθεί επίσης δύο αεροδρόμια από γειτονικές χώρες, την Οχρίδα(ΠΓΔΜ) και την Σόφια(Βουλγαρία) για να ελέγχουμε την εξέλιξη των ψυχρών εισβολών από τα Βόρεια!

LGTS - Thessaloniki/Makedonia-Elev 7m
Απόσταση από meteothes.gr: Ν 13km
Ενημερώθηκε: 21/07/2018 15:50
Αίθριος
Αίθριος
 Ανεμος από Δ
Ανεμος: Δ 19 km/h
Θερμοκρασία: 32°C
Σημ. Δρόσου: 14°C
Υγρασία: 33%
Βαρόμετρο: 1011 hPa
Συνθήκες: Αίθριος
Ορατότητα: πάνω από 10 km
2018/07/21 12:50 LGTS 211250Z 26010KT CAVOK 32/14 Q1011 NOSIG
LGAV - Athens/Elef. Venizelos-Elev 94m
Απόσταση από meteothes.gr: ΝΝΑ 312km
Ενημερώθηκε: 21/07/2018 15:50
Διάσπαρτα Nέφη
Διάσπαρτα Nέφη
 Ανεμος από ΑΝΑ
Ανεμος: ΑΝΑ 17 km/h
Θερμοκρασία: 33°C
Σημ. Δρόσου: 14°C
Υγρασία: 32%
Βαρόμετρο: 1011 hPa
Νέφωση: Διάσπαρτα Nέφη
Ορατότητα: 10 km
Λεπτομέρειες Νεφών: Διάσπαρτα Nέφη 1067 m
2018/07/21 12:50 LGAV 211250Z 11009KT 080V150 9999 FEW035 33/14 Q1011 NOSIG
 
LGAL - Alexandroupolis-Elev 3m
Απόσταση από meteothes.gr: Α 251km
Ενημερώθηκε: 21/07/2018 15:50
Μερικώς νεφελώδης
Μερικώς νεφελώδης
 Ανεμος από ΔΝΔ
Ανεμος: ΔΝΔ 28 km/h
Θερμοκρασία: 31°C
Σημ. Δρόσου: 14°C
Υγρασία: 35%
Βαρόμετρο: 1011 hPa
Νέφωση: Μερικώς νεφελώδης
Ορατότητα: 10 km
Λεπτομέρειες Νεφών: Μερικώς νεφελώδης 762 m
2018/07/21 12:50 LGAL 211250Z 24015KT 9999 SCT025 31/14 Q1011
LGKV - Kavala/Crysoupolis-Elev 5m
Απόσταση από meteothes.gr: ΑΒΑ 144km
Ενημερώθηκε: 21/07/2018 15:50
Διάσπαρτα Nέφη
Διάσπαρτα Nέφη
 Ανεμος από ΔΝΔ
Ανεμος: ΔΝΔ 11 km/h
Θερμοκρασία: 30°C
Δείκτη Δυσφορίας: 31°C
Σημ. Δρόσου: 19°C
Υγρασία: 52%
Βαρόμετρο: 1010 hPa
Νέφωση: Διάσπαρτα Nέφη
Ορατότητα: 10 km
Λεπτομέρειες Νεφών: Διάσπαρτα Nέφη 610 m
2018/07/21 12:50 LGKV 211250Z 24006KT 9999 FEW020 30/19 Q1010
 
LGSK - Skiathos Island-Elev 15m
Απόσταση από meteothes.gr: ΝΝΑ 168km
Ενημερώθηκε: 21/07/2018 15:50
Αίθριος
Αίθριος
 Ανεμος από Β
Ανεμος: Β 15 km/h
Θερμοκρασία: 29°C
Δείκτη Δυσφορίας: 30°C
Σημ. Δρόσου: 19°C
Υγρασία: 55%
Βαρόμετρο: 1012 hPa
Συνθήκες: Αίθριος
Ορατότητα: πάνω από 10 km
2018/07/21 12:50 LGSK 211250Z 01008KT CAVOK 29/19 Q1012
LGLM - Limnos Island-Elev 5m
Απόσταση από meteothes.gr: ΑΝΑ 210km
Ενημερώθηκε: 21/07/2018 15:50
Μερικώς νεφελώδης
Μερικώς νεφελώδης
 Ανεμος από Ν
Ανεμος: Ν 9 km/h
Θερμοκρασία: 30°C
Δείκτη Δυσφορίας: 31°C
Σημ. Δρόσου: 19°C
Υγρασία: 52%
Βαρόμετρο: 1011 hPa
Νέφωση: Μερικώς νεφελώδης
Ορατότητα: 10 km
Λεπτομέρειες Νεφών: Μερικώς νεφελώδης 610 m
2018/07/21 12:50 LGLM 211250Z 18005KT 9999 SCT020 30/19 Q1011
 
LGMT - Mitilini Island-Elev 17m
Απόσταση από meteothes.gr: ΑΝΑ 358km
Ενημερώθηκε: 21/07/2018 15:50
Διάσπαρτα Nέφη
Διάσπαρτα Nέφη
 Ανεμος από Β
Ανεμος: Β 17 km/h
Θερμοκρασία: 32°C
Δείκτη Δυσφορίας: 36°C
Σημ. Δρόσου: 21°C
Υγρασία: 52%
Βαρόμετρο: 1010 hPa
Νέφωση: Διάσπαρτα Nέφη
Ορατότητα: 10 km
Λεπτομέρειες Νεφών: Διάσπαρτα Nέφη 610 m
2018/07/21 12:50 LGMT 211250Z 35009KT 300V360 9999 FEW020 32/21 Q1010
LGSY - Skiros Island-Elev 15m
Απόσταση από meteothes.gr: ΝΑ 227km
Ενημερώθηκε: 21/07/2018 15:50
Διάσπαρτα Nέφη
Διάσπαρτα Nέφη
 Ανεμος από ΒΒΔ
Ανεμος: ΒΒΔ 15 km/h
Θερμοκρασία: 29°C
Δείκτη Δυσφορίας: 32°C
Σημ. Δρόσου: 23°C
Υγρασία: 70%
Βαρόμετρο: 1012 hPa
Νέφωση: Διάσπαρτα Nέφη
Ορατότητα: 10 km
Λεπτομέρειες Νεφών: Διάσπαρτα Nέφη 762 m
2018/07/21 12:50 LGSY 211250Z 33008KT 9999 FEW025 29/23 Q1012 BLU
 
LGKZ - Kozani-Elev 628m
Απόσταση από meteothes.gr: ΔΝΔ 102km
Ενημερώθηκε: 21/07/2018 15:50
Αίθριος
Αίθριος
 Ανεμος από άπνοια
Ανεμος: άπνοια
Θερμοκρασία: 31°C
Σημ. Δρόσου: 7°C
Υγρασία: 22%
Βαρόμετρο: 1015 hPa
Συνθήκες: Αίθριος
Ορατότητα: πάνω από 10 km
2018/07/21 12:50 LGKZ 211250Z 00000KT CAVOK 31/07 Q1015
LGIO - Ioannina-Elev 476m
Απόσταση από meteothes.gr: ΔΝΔ 209km
Ενημερώθηκε: 21/07/2018 14:50
ΜΗ Ενημερωμένο METAR!
Διάσπαρτα Nέφη
Διάσπαρτα Nέφη
 Ανεμος από μεταβλητός
Ανεμος: μεταβλητός 0 km/h
Θερμοκρασία: 32°C
Δείκτη Δυσφορίας: 33°C
Σημ. Δρόσου: 17°C
Υγρασία: 41%
Βαρόμετρο: 1014 hPa
Νέφωση: Διάσπαρτα Nέφη
Ορατότητα: 10 km
Λεπτομέρειες Νεφών: Διάσπαρτα Nέφη 1067 m
2018/07/21 11:50 LGIO 211150Z /////KT 9999 FEW035 32/17 Q1014
 
LGZA - Zakinthos-Elev 3m
Απόσταση από meteothes.gr: ΝΝΔ 367km
Ενημερώθηκε: 21/07/2018 15:50
Αίθριος
Αίθριος
 Ανεμος από ΑΝΑ
Ανεμος: ΑΝΑ 7 km/h
Θερμοκρασία: 31°C
Δείκτη Δυσφορίας: 33°C
Σημ. Δρόσου: 19°C
Υγρασία: 49%
Βαρόμετρο: 1012 hPa
Συνθήκες: Αίθριος
Ορατότητα: πάνω από 10 km
2018/07/21 12:50 LGZA 211250Z 12004KT CAVOK 31/19 Q1012
LGKR - Corfu Island-Elev 2m
Απόσταση από meteothes.gr: ΔΝΔ 282km
Ενημερώθηκε: 21/07/2018 15:50
Αίθριος
Αίθριος
 Ανεμος από ΔΝΔ
Ανεμος: ΔΝΔ 13 km/h
Θερμοκρασία: 33°C
Δείκτη Δυσφορίας: 40°C
Σημ. Δρόσου: 25°C
Υγρασία: 63%
Βαρόμετρο: 1012 hPa
Συνθήκες: Αίθριος
Ορατότητα: πάνω από 10 km
2018/07/21 12:50 LGKR 211250Z 25007KT CAVOK 33/25 Q1012 NOSIG
 
LGSO - Syros Island-Elev 72m
Απόσταση από meteothes.gr: ΝΝΑ 397km
Ενημερώθηκε: 21/07/2018 15:50

 Ανεμος από Β
Ανεμος: Β 19 km/h
Θερμοκρασία: 31°C
Δείκτη Δυσφορίας: 32°C
Σημ. Δρόσου: 18°C
Υγρασία: 46%
Βαρόμετρο: 1011 hPa
2018/07/21 12:50 LGSO 211250Z AUTO 36010KT //// // ////// 31/18 Q1011 RE//
LGMK - Mikonos Island-Elev 123m
Απόσταση από meteothes.gr: ΝΝΑ 412km
Ενημερώθηκε: 21/07/2018 15:50
Αίθριος
Αίθριος
 Ανεμος από ΒΒΔ
Ανεμος: ΒΒΔ 30 km/h
Θερμοκρασία: 31°C
Δείκτη Δυσφορίας: 32°C
Σημ. Δρόσου: 18°C
Υγρασία: 46%
Βαρόμετρο: 1010 hPa
Συνθήκες: Αίθριος
Ορατότητα: πάνω από 10 km
2018/07/21 12:50 LGMK 211250Z 34016KT CAVOK 31/18 Q1010
 
LGSR - Santorini Island-Elev 40m
Απόσταση από meteothes.gr: ΝΝΑ 520km
Ενημερώθηκε: 21/07/2018 15:50
Αίθριος
Αίθριος
 Ανεμος από ΒΔ
Ανεμος: ΒΔ 30 km/h
Θερμοκρασία: 32°C
Δείκτη Δυσφορίας: 33°C
Σημ. Δρόσου: 18°C
Υγρασία: 43%
Βαρόμετρο: 1010 hPa
Συνθήκες: Αίθριος
Ορατότητα: πάνω από 10 km
2018/07/21 12:50 LGSR 211250Z 32016KT CAVOK 32/18 Q1010
LGKL - Kalamata-Elev 8m
Απόσταση από meteothes.gr: Ν 405km
Ενημερώθηκε: 21/07/2018 15:50
Διάσπαρτα Nέφη
Διάσπαρτα Nέφη
 Ανεμος από ΝΝΑ
Ανεμος: ΝΝΑ 17 km/h
Θερμοκρασία: 33°C
Σημ. Δρόσου: 14°C
Υγρασία: 32%
Βαρόμετρο: 1012 hPa
Νέφωση: Διάσπαρτα Nέφη
Ορατότητα: 10 km
Λεπτομέρειες Νεφών: Διάσπαρτα Nέφη 762 m
2018/07/21 12:50 LGKL 211250Z 16009KT 9999 FEW025 33/14 Q1012
 
LGIR - Iraklion/Crete-Elev 5m
Απόσταση από meteothes.gr: ΝΝΑ 622km
Ενημερώθηκε: 21/07/2018 15:50
Διάσπαρτα Nέφη
Διάσπαρτα Nέφη
 Ανεμος από ΔΒΔ
Ανεμος: ΔΒΔ 26 km/h
Θερμοκρασία: 30°C
Δείκτη Δυσφορίας: 33°C
Σημ. Δρόσου: 22°C
Υγρασία: 62%
Βαρόμετρο: 1011 hPa
Νέφωση: Διάσπαρτα Nέφη
Ορατότητα: 10 km
Λεπτομέρειες Νεφών: Διάσπαρτα Nέφη 488 m
2018/07/21 12:50 LGIR 211250Z 30014KT 9999 FEW016 30/22 Q1011 NOSIG
LGRP - Rhodes-Elev 5m
Απόσταση από meteothes.gr: ΝΑ 649km
Ενημερώθηκε: 21/07/2018 15:50
Διάσπαρτα Nέφη
Διάσπαρτα Nέφη
 Ανεμος από ΔΝΔ
Ανεμος: ΔΝΔ 28 km/h
Θερμοκρασία: 31°C
Δείκτη Δυσφορίας: 33°C
Σημ. Δρόσου: 19°C
Υγρασία: 49%
Βαρόμετρο: 1006 hPa
Νέφωση: Διάσπαρτα Nέφη
Ορατότητα: 10 km
Λεπτομέρειες Νεφών: Διάσπαρτα Nέφη 549 m
2018/07/21 12:50 LGRP 211250Z 25015KT 9999 FEW018 31/19 Q1006 NOSIG
 
LWOH - Ohrid/FYROM-Elev 761m
Απόσταση από meteothes.gr: ΔΒΔ 188km
Ενημερώθηκε: 21/07/2018 16:00
Διάσπαρτα Nέφη
Διάσπαρτα Nέφη
 Ανεμος από Ν
Ανεμος: Ν 7 km/h
Θερμοκρασία: 26°C
Σημ. Δρόσου: 11°C
Υγρασία: 39%
Βαρόμετρο: 1016 hPa
Νέφωση: Διάσπαρτα Nέφη
Ορατότητα: 10 km
Λεπτομέρειες Νεφών: Διάσπαρτα Nέφη 1219 m
2018/07/21 13:00 LWOH 211300Z 19004KT 9999 FEW040 26/11 Q1016
LBSF - Sofia/Bulgaria-Elev 595m
Απόσταση από meteothes.gr: Β 227km
Ενημερώθηκε: 21/07/2018 16:00
Διάσπαρτα Nέφη
Διάσπαρτα Nέφη
 Ανεμος από μεταβλητός
Ανεμος: μεταβλητός 11 km/h
Θερμοκρασία: 28°C
Δείκτη Δυσφορίας: 27°C
Σημ. Δρόσου: 13°C
Υγρασία: 40%
Βαρόμετρο: 1014 hPa
Νέφωση: Διάσπαρτα Nέφη
Ορατότητα: 10 km
Λεπτομέρειες Νεφών: Διάσπαρτα Nέφη 1890 m
2018/07/21 13:00 LBSF 211300Z VRB06KT 9999 FEW062 28/13 Q1014 NOSIG

(*) Μερικές αναφορές παρουσιάζουν λιγότερα στοιχεία γιατί οι αρχικές είναι ελλιπείς ή έχουν λάθος μορφοποίηση!